N4CHT-2 Weather Reports


Display with metric or nautical units.
time (UTC)temp
F
wind
direction
speed
MPH
gust
MPH
rain 1hr
in
rain 24hr
in
rain mn
in
humidity
%
barometer
mb
20211203223750 49 319 2.0 2.0 0.00 0.00 0.00
20211203223526 49 319 2.0 2.0 0.00 0.00 0.00
20211203223259 49 283 3.0 1.0 0.00 0.00 0.00
20211203223027 49 283 3.0 1.0 0.00 0.00 0.00
20211203222715 49 281 2.0 1.0 0.00 0.00 0.00
20211203222523 49 281 2.0 1.0 0.00 0.00 0.00
20211203222021 49 294 4.0 3.0 0.00 0.00 0.00
20211203221405 49 278 1.0 0.0 0.00 0.00 0.00
20211203221017 49 278 1.0 0.0 0.00 0.00 0.00
20211203220745 49 321 0.0 1.0 0.00 0.00 0.00
20211203220513 49 321 0.0 1.0 0.00 0.00 0.00
20211203220213 49 281 0.0 4.0 0.00 0.00 0.00
20211203220013 49 281 0.0 4.0 0.00 0.00 0.00
20211203215306 50 200 0.0 0.0 0.00 0.00 0.00
20211203215007 50 200 0.0 0.0 0.00 0.00 0.00
20211203214508 50 200 0.0 0.0 0.00 0.00 0.00
20211203214303 50 231 2.0 2.0 0.00 0.00 0.00
20211203214006 50 231 2.0 2.0 0.00 0.00 0.00
20211203213732 50 276 0.0 1.0 0.00 0.00 0.00
20211203213501 50 276 0.0 1.0 0.00 0.00 0.00
20211203212955 50 278 2.0 1.0 0.00 0.00 0.00
20211203212800 50 335 0.0 0.0 0.00 0.00 0.00
20211203212658 50 335 0.0 0.0 0.00 0.00 0.00
20211203212456 50 335 0.0 0.0 0.00 0.00 0.00
20211203212216 50 335 0.0 0.0 0.00 0.00 0.00
20211203211953 50 335 0.0 0.0 0.00 0.00 0.00
20211203211749 50 15 2.0 0.0 0.00 0.00 0.00
20211203211454 50 15 2.0 0.0 0.00 0.00 0.00
20211203211358 50 44 0.0 2.0 0.00 0.00 0.00
20211203211326 50 44 0.0 2.0 0.00 0.00 0.00
20211203210954 50 44 0.0 2.0 0.00 0.00 0.00
20211203210452 50 23 0.0 2.0 0.00 0.00 0.00
20211203210326 50 260 0.0 0.0 0.00 0.00 0.00
20211203210228 50 260 0.0 0.0 0.00 0.00 0.00
20211203205952 50 260 0.0 0.0 0.00 0.00 0.00
20211203205453 50 340 2.0 3.0 0.00 0.00 0.00
20211203205201 50 273 0.0 0.0 0.00 0.00 0.00
20211203204945 50 273 0.0 0.0 0.00 0.00 0.00
20211203204721 50 273 1.0 0.0 0.00 0.00 0.00
20211203204443 50 273 1.0 0.0 0.00 0.00 0.00
20211203204225 50 233 0.0 0.0 0.00 0.00 0.00
20211203203942 50 233 0.0 0.0 0.00 0.00 0.00
20211203203646 51 288 4.0 3.0 0.00 0.00 0.00
20211203203437 51 288 4.0 3.0 0.00 0.00 0.00
20211203203235 50 208 3.0 5.0 0.00 0.00 0.00
20211203202934 50 208 3.0 5.0 0.00 0.00 0.00
20211203202655 51 267 6.0 7.0 0.00 0.00 0.00
20211203202435 51 267 6.0 7.0 0.00 0.00 0.00
20211203202249 51 255 5.0 3.0 0.00 0.00 0.00
20211203201927 51 255 5.0 3.0 0.00 0.00 0.00
20211203201648 51 253 4.0 5.0 0.00 0.00 0.00
20211203201428 51 253 4.0 5.0 0.00 0.00 0.00
20211203201208 51 253 8.0 8.0 0.00 0.00 0.00
20211203200926 51 253 8.0 8.0 0.00 0.00 0.00
20211203200733 51 257 6.0 8.0 0.00 0.00 0.00
20211203200424 51 257 6.0 8.0 0.00 0.00 0.00
20211203200238 52 231 4.0 5.0 0.00 0.00 0.00
20211203195924 52 231 4.0 5.0 0.00 0.00 0.00
20211203195425 52 163 2.0 0.0 0.00 0.00 0.00
20211203194921 52 184 3.0 0.0 0.00 0.00 0.00
20211203194420 52 257 4.0 4.0 0.00 0.00 0.00
20211203194144 52 269 7.0 5.0 0.00 0.00 0.00
20211203193919 52 269 7.0 5.0 0.00 0.00 0.00
20211203193417 52 195 5.0 2.0 0.00 0.00 0.00
20211203193143 53 243 5.0 3.0 0.00 0.00 0.00
20211203192913 53 243 5.0 3.0 0.00 0.00 0.00
20211203192639 53 238 1.0 0.0 0.00 0.00 0.00
20211203192414 53 238 1.0 0.0 0.00 0.00 0.00
20211203192202 52 271 3.0 6.0 0.00 0.00 0.00
20211203191911 52 271 3.0 6.0 0.00 0.00 0.00
20211203191214 51 235 8.0 9.0 0.00 0.00 0.00
20211203190911 51 235 8.0 9.0 0.00 0.00 0.00
20211203190605 53 246 4.0 3.0 0.00 0.00 0.00
20211203190408 53 246 4.0 3.0 0.00 0.00 0.00
20211203190211 53 215 4.0 6.0 0.00 0.00 0.00
20211203185910 53 215 4.0 6.0 0.00 0.00 0.00
20211203185240 53 184 5.0 3.0 0.00 0.00 0.00
20211203184925 52 167 2.0 1.0 0.00 0.00 0.00
20211203184903 53 184 5.0 3.0 0.00 0.00 0.00
20211203184734 52 167 2.0 1.0 0.00 0.00 0.00
20211203184403 52 167 2.0 1.0 0.00 0.00 0.00
20211203183904 52 210 4.0 3.0 0.00 0.00 0.00
20211203183357 53 208 3.0 1.0 0.00 0.00 0.00
20211203182854 52 215 6.0 4.0 0.00 0.00 0.00
20211203182354 52 169 5.0 4.0 0.00 0.00 0.00
20211203182153 52 221 4.0 9.0 0.00 0.00 0.00
20211203181852 52 221 4.0 9.0 0.00 0.00 0.00
20211203181351 52 228 6.0 5.0 0.00 0.00 0.00
20211203181205 52 222 3.0 4.0 0.00 0.00 0.00
20211203181118 52 222 3.0 4.0 0.00 0.00 0.00
20211203180848 52 222 3.0 4.0 0.00 0.00 0.00
20211203180345 52 260 3.0 4.0 0.00 0.00 0.00
20211203180238 51 181 9.0 4.0 0.00 0.00 0.00
20211203175844 51 181 9.0 4.0 0.00 0.00 0.00
20211203175625 51 246 5.0 10.0 0.00 0.00 0.00
20211203175345 51 246 5.0 10.0 0.00 0.00 0.00
20211203175123 51 276 6.0 5.0 0.00 0.00 0.00
20211203175023 51 276 6.0 5.0 0.00 0.00 0.00
20211203174839 51 276 6.0 5.0 0.00 0.00 0.00
20211203174340 51 246 8.0 8.0 0.00 0.00 0.00
20211203174109 50 221 8.0 10.0 0.00 0.00 0.00
20211203173840 50 221 8.0 10.0 0.00 0.00 0.00
20211203173622 51 214 7.0 7.0 0.00 0.00 0.00
20211203173335 51 214 7.0 7.0 0.00 0.00 0.00
20211203172836 52 181 1.0 2.0 0.00 0.00 0.00
20211203172336 52 253 6.0 9.0 0.00 0.00 0.00
20211203171831 51 238 4.0 4.0 0.00 0.00 0.00
20211203171732 51 253 11.0 12.0 0.00 0.00 0.00
20211203171332 51 253 11.0 12.0 0.00 0.00 0.00
20211203171108 51 229 6.0 4.0 0.00 0.00 0.00
20211203170832 51 229 6.0 4.0 0.00 0.00 0.00
20211203170323 51 195 5.0 4.0 0.00 0.00 0.00
20211203165820 51 208 5.0 2.0 0.00 0.00 0.00
20211203165551 52 242 4.0 2.0 0.00 0.00 0.00
20211203165319 52 242 4.0 2.0 0.00 0.00 0.00
20211203164816 51 177 5.0 6.0 0.00 0.00 0.00
20211203164721 51 163 5.0 2.0 0.00 0.00 0.00
20211203164630 51 163 5.0 2.0 0.00 0.00 0.00
20211203164316 51 163 5.0 2.0 0.00 0.00 0.00
20211203164101 51 218 2.0 5.0 0.00 0.00 0.00
20211203163816 51 218 2.0 5.0 0.00 0.00 0.00
20211203163314 50 255 6.0 13.0 0.00 0.00 0.00
20211203162815 51 245 6.0 7.0 0.00 0.00 0.00
20211203161812 51 163 2.0 2.0 0.00 0.00 0.00
20211203161633 51 195 5.0 5.0 0.00 0.00 0.00
20211203161309 51 195 5.0 5.0 0.00 0.00 0.00
20211203161042 51 159 2.0 3.0 0.00 0.00 0.00
20211203161009 51 159 2.0 3.0 0.00 0.00 0.00
20211203160811 51 159 2.0 3.0 0.00 0.00 0.00
20211203160732 51 231 4.0 6.0 0.00 0.00 0.00
20211203160634 51 231 4.0 6.0 0.00 0.00 0.00
20211203160304 51 231 4.0 6.0 0.00 0.00 0.00
20211203160130 50 233 6.0 13.0 0.00 0.00 0.00
20211203155805 50 233 6.0 13.0 0.00 0.00 0.00
20211203155739 49 274 7.0 8.0 0.00 0.00 0.00
20211203155637 49 274 7.0 8.0 0.00 0.00 0.00
20211203155306 49 274 7.0 8.0 0.00 0.00 0.00
20211203154754 49 166 3.0 1.0 0.00 0.00 0.00
20211203154710 49 239 3.0 0.0 0.00 0.00 0.00
20211203154255 49 239 3.0 0.0 0.00 0.00 0.00
20211203153758 50 246 1.0 3.0 0.00 0.00 0.00
20211203153548 49 266 7.0 7.0 0.00 0.00 0.00
20211203153249 49 266 7.0 7.0 0.00 0.00 0.00
20211203152746 49 238 8.0 4.0 0.00 0.00 0.00
20211203152555 49 274 6.0 3.0 0.00 0.00 0.00
20211203152247 49 274 6.0 3.0 0.00 0.00 0.00
20211203151740 49 212 5.0 3.0 0.00 0.00 0.00
20211203151552 50 188 5.0 3.0 0.00 0.00 0.00
20211203151239 50 188 5.0 3.0 0.00 0.00 0.00
20211203150929 50 188 3.0 2.0 0.00 0.00 0.00
20211203150738 50 188 3.0 2.0 0.00 0.00 0.00
20211203150550 50 177 0.0 0.0 0.00 0.00 0.00
20211203150236 50 177 0.0 0.0 0.00 0.00 0.00
20211203145736 50 179 5.0 4.0 0.00 0.00 0.00
20211203145600 50 259 1.0 3.0 0.00 0.00 0.00
20211203145237 50 259 1.0 3.0 0.00 0.00 0.00
20211203144730 50 238 3.0 1.0 0.00 0.00 0.00
20211203144536 50 201 4.0 1.0 0.00 0.00 0.00
20211203144230 50 201 4.0 1.0 0.00 0.00 0.00
20211203144000 52 207 3.0 0.0 0.00 0.00 0.00
20211203143729 52 207 3.0 0.0 0.00 0.00 0.00
20211203143455 50 250 4.0 1.0 0.00 0.00 0.00
20211203143216 50 250 4.0 1.0 0.00 0.00 0.00
20211203142716 50 231 4.0 8.0 0.00 0.00 0.00
20211203142216 51 132 2.0 0.0 0.00 0.00 0.00
20211203141932 48 37 0.0 0.0 0.00 0.00 0.00
20211203141712 48 37 0.0 0.0 0.00 0.00 0.00
20211203141546 49 135 0.0 0.0 0.00 0.00 0.00
20211203141424 49 135 0.0 0.0 0.00 0.00 0.00
20211203141213 49 135 0.0 0.0 0.00 0.00 0.00
20211203140711 46 135 3.0 1.0 0.00 0.00 0.00
20211203140415 46 52 0.0 0.0 0.00 0.00 0.00
20211203140206 46 52 0.0 0.0 0.00 0.00 0.00
20211203135705 46 83 0.0 0.0 0.00 0.00 0.00
20211203135206 46 75 0.0 2.0 0.00 0.00 0.00
20211203135006 45 89 0.0 0.0 0.00 0.00 0.00
20211203134702 45 89 0.0 0.0 0.00 0.00 0.00
20211203134541 45 111 0.0 2.0 0.00 0.00 0.00
20211203134202 45 111 0.0 2.0 0.00 0.00 0.00
20211203133936 44 98 0.0 0.0 0.00 0.00 0.00
20211203133703 44 98 0.0 0.0 0.00 0.00 0.00
20211203133423 42 262 0.0 0.0 0.00 0.00 0.00
20211203133159 42 262 0.0 0.0 0.00 0.00 0.00
20211203132914 43 172 0.0 0.0 0.00 0.00 0.00
20211203132659 43 172 0.0 0.0 0.00 0.00 0.00
20211203132417 44 172 0.0 0.0 0.00 0.00 0.00
20211203132159 44 172 0.0 0.0 0.00 0.00 0.00
20211203131934 42 172 0.0 0.0 0.00 0.00 0.00
20211203131656 42 172 0.0 0.0 0.00 0.00 0.00
20211203131156 42 172 0.0 0.0 0.00 0.00 0.00
20211203130656 41 172 0.0 0.0 0.00 0.00 0.00
20211203130550 41 172 0.0 0.0 0.00 0.00 0.00
20211203130454 41 172 0.0 0.0 0.00 0.00 0.00
20211203130147 41 172 0.0 0.0 0.00 0.00 0.00
20211203125841 41 172 0.0 0.0 0.00 0.00 0.00
20211203125647 41 172 0.0 0.0 0.00 0.00 0.00
20211203125418 41 172 0.0 0.0 0.00 0.00 0.00
20211203125147 41 172 0.0 0.0 0.00 0.00 0.00
20211203124925 40 172 0.0 0.0 0.00 0.00 0.00
20211203124639 40 172 0.0 0.0 0.00 0.00 0.00
20211203124139 40 172 0.0 0.0 0.00 0.00 0.00
20211203123639 40 172 0.0 0.0 0.00 0.00 0.00
20211203123137 39 172 0.0 0.0 0.00 0.00 0.00
20211203123018 39 172 0.0 0.0 0.00 0.00 0.00
20211203122637 39 172 0.0 0.0 0.00 0.00 0.00
20211203121621 41 172 0.0 0.0 0.00 0.00 0.00
20211203120833 42 212 0.0 0.0 0.00 0.00 0.00
20211203120622 42 212 0.0 0.0 0.00 0.00 0.00
20211203115420 39 218 0.0 1.0 0.00 0.00 0.00
20211203115116 39 218 0.0 1.0 0.00 0.00 0.00
20211203114838 39 31 0.0 0.0 0.00 0.00 0.00
20211203114613 39 31 0.0 0.0 0.00 0.00 0.00
20211203113824 39 31 0.0 0.0 0.00 0.00 0.00
20211203113612 39 31 0.0 0.0 0.00 0.00 0.00
20211203113403 38 31 0.0 0.0 0.00 0.00 0.00
20211203113107 38 31 0.0 0.0 0.00 0.00 0.00
20211203112935 38 31 0.0 0.0 0.00 0.00 0.00
20211203112608 38 31 0.0 0.0 0.00 0.00 0.00
20211203112339 38 31 0.0 0.0 0.00 0.00 0.00
20211203112106 38 31 0.0 0.0 0.00 0.00 0.00
20211203111847 38 31 0.0 0.0 0.00 0.00 0.00
20211203111603 38 31 0.0 0.0 0.00 0.00 0.00
20211203111427 38 31 0.0 0.0 0.00 0.00 0.00
20211203111102 38 31 0.0 0.0 0.00 0.00 0.00
20211203110746 38 31 0.0 0.0 0.00 0.00 0.00
20211203110604 38 31 0.0 0.0 0.00 0.00 0.00
20211203110344 38 31 0.0 0.0 0.00 0.00 0.00
20211203110059 38 31 0.0 0.0 0.00 0.00 0.00
20211203105058 38 250 0.0 0.0 0.00 0.00 0.00
20211203104553 38 250 0.0 0.0 0.00 0.00 0.00
20211203104336 39 250 0.0 0.0 0.00 0.00 0.00
20211203104053 39 250 0.0 0.0 0.00 0.00 0.00
20211203103744 41 250 0.0 0.0 0.00 0.00 0.00
20211203103551 41 250 0.0 0.0 0.00 0.00 0.00
20211203103340 43 250 0.0 0.0 0.00 0.00 0.00
20211203103045 43 250 0.0 0.0 0.00 0.00 0.00
20211203102545 43 250 2.0 0.0 0.00 0.00 0.00
20211203102415 41 315 0.0 0.0 0.00 0.00 0.00
20211203102046 41 315 0.0 0.0 0.00 0.00 0.00
20211203101740 43 260 0.0 0.0 0.00 0.00 0.00
20211203101539 43 260 0.0 0.0 0.00 0.00 0.00
20211203101322 44 260 1.0 1.0 0.00 0.00 0.00
20211203101224 44 260 1.0 1.0 0.00 0.00 0.00
20211203101041 44 260 1.0 1.0 0.00 0.00 0.00
20211203100539 44 295 0.0 0.0 0.00 0.00 0.00
20211203100330 44 295 0.0 0.0 0.00 0.00 0.00
20211203100255 44 295 0.0 0.0 0.00 0.00 0.00
20211203100032 44 295 0.0 0.0 0.00 0.00 0.00
20211203095825 44 266 1.0 0.0 0.00 0.00 0.00
20211203095529 44 266 1.0 0.0 0.00 0.00 0.00
20211203095344 45 229 0.0 0.0 0.00 0.00 0.00
20211203095305 45 229 0.0 0.0 0.00 0.00 0.00
20211203095030 45 229 0.0 0.0 0.00 0.00 0.00
20211203094834 44 198 0.0 0.0 0.00 0.00 0.00
20211203094752 44 198 0.0 0.0 0.00 0.00 0.00
20211203094522 44 198 0.0 0.0 0.00 0.00 0.00
20211203094333 46 243 1.0 3.0 0.00 0.00 0.00
20211203094024 46 243 1.0 3.0 0.00 0.00 0.00
20211203093814 45 242 0.0 0.0 0.00 0.00 0.00
20211203093523 45 242 0.0 0.0 0.00 0.00 0.00
20211203093355 45 249 0.0 1.0 0.00 0.00 0.00
20211203093241 45 249 0.0 1.0 0.00 0.00 0.00
20211203093012 45 249 0.0 1.0 0.00 0.00 0.00
20211203092730 46 308 0.0 0.0 0.00 0.00 0.00
20211203092631 46 308 0.0 0.0 0.00 0.00 0.00
20211203092512 46 308 0.0 0.0 0.00 0.00 0.00
20211203092013 47 308 0.0 0.0 0.00 0.00 0.00
20211203091508 47 293 3.0 2.0 0.00 0.00 0.00
20211203091227 47 250 2.0 3.0 0.00 0.00 0.00
20211203091009 47 250 2.0 3.0 0.00 0.00 0.00
20211203090733 47 291 2.0 8.0 0.00 0.00 0.00
20211203090509 47 291 2.0 8.0 0.00 0.00 0.00
20211203085001 48 242 3.0 5.0 0.00 0.00 0.00
20211203084808 48 249 6.0 5.0 0.00 0.00 0.00
20211203084458 48 249 6.0 5.0 0.00 0.00 0.00
20211203084226 49 271 7.0 8.0 0.00 0.00 0.00
20211203083958 49 271 7.0 8.0 0.00 0.00 0.00
20211203083744 49 255 7.0 4.0 0.00 0.00 0.00
20211203083500 49 255 7.0 4.0 0.00 0.00 0.00
20211203083231 49 242 7.0 10.0 0.00 0.00 0.00
20211203082956 49 242 7.0 10.0 0.00 0.00 0.00
20211203082702 49 260 5.0 7.0 0.00 0.00 0.00
20211203082455 49 260 5.0 7.0 0.00 0.00 0.00
20211203082259 49 248 8.0 8.0 0.00 0.00 0.00
20211203081955 49 248 8.0 8.0 0.00 0.00 0.00
20211203081732 49 245 9.0 5.0 0.00 0.00 0.00
20211203081448 49 245 9.0 5.0 0.00 0.00 0.00
20211203081258 49 248 5.0 4.0 0.00 0.00 0.00
20211203080948 49 248 5.0 4.0 0.00 0.00 0.00
20211203080841 49 239 6.0 9.0 0.00 0.00 0.00
20211203080449 49 239 6.0 9.0 0.00 0.00 0.00
20211203080111 49 229 7.0 6.0 0.00 0.00 0.00
20211203075938 49 229 7.0 6.0 0.00 0.00 0.00
20211203075659 50 246 7.0 11.0 0.00 0.00 0.00
20211203075437 50 246 7.0 11.0 0.00 0.00 0.00
20211203075209 50 246 7.0 10.0 0.00 0.00 0.00
20211203074937 50 246 7.0 10.0 0.00 0.00 0.00
20211203074434 50 228 6.0 7.0 0.00 0.00 0.00
20211203073719 51 263 10.0 19.0 0.00 0.00 0.00
20211203073435 51 263 10.0 19.0 0.00 0.00 0.00
20211203073123 51 266 6.0 6.0 0.00 0.00 0.00
20211203072927 51 266 6.0 6.0 0.00 0.00 0.00
20211203072700 51 252 7.0 8.0 0.00 0.00 0.00
20211203072428 51 252 7.0 8.0 0.00 0.00 0.00
20211203072154 51 205 7.0 6.0 0.00 0.00 0.00
20211203072110 51 205 7.0 6.0 0.00 0.00 0.00
20211203071928 51 205 7.0 6.0 0.00 0.00 0.00
20211203071714 51 273 7.0 9.0 0.00 0.00 0.00
20211203071425 51 273 7.0 9.0 0.00 0.00 0.00
20211203071232 51 281 8.0 8.0 0.00 0.00 0.00
20211203070925 51 281 8.0 8.0 0.00 0.00 0.00
20211203065628 52 255 9.0 11.0 0.00 0.00 0.00
20211203065423 52 255 9.0 11.0 0.00 0.00 0.00
20211203064417 52 249 10.0 10.0 0.00 0.00 0.00
20211203064123 52 276 12.0 6.0 0.00 0.00 0.00
20211203063918 52 276 12.0 6.0 0.00 0.00 0.00
20211203063231 53 222 10.0 7.0 0.00 0.00 0.00
20211203062913 53 222 10.0 7.0 0.00 0.00 0.00
20211203062410 52 262 6.0 11.0 0.00 0.00 0.00
20211203062142 53 222 9.0 6.0 0.00 0.00 0.00
20211203062059 53 222 9.0 6.0 0.00 0.00 0.00
20211203061911 53 222 9.0 6.0 0.00 0.00 0.00
20211203061656 53 266 11.0 12.0 0.00 0.00 0.00
20211203061403 53 266 11.0 12.0 0.00 0.00 0.00
20211203060901 54 269 11.0 9.0 0.00 0.00 0.00
20211203060358 54 276 8.0 10.0 0.00 0.00 0.00
20211203060136 56 288 11.0 9.0 0.00 0.00 0.00
20211203055854 56 288 11.0 9.0 0.00 0.00 0.00
20211203055627 57 219 4.0 10.0 0.00 0.00 0.00
20211203055354 57 219 4.0 10.0 0.00 0.00 0.00
20211203055158 57 195 6.0 5.0 0.00 0.00 0.00
20211203055102 57 195 6.0 5.0 0.00 0.00 0.00
20211203054856 57 195 6.0 5.0 0.00 0.00 0.00
20211203054616 57 217 8.0 8.0 0.00 0.00 0.00
20211203054345 57 217 8.0 8.0 0.00 0.00 0.00
20211203054301 58 198 10.0 6.0 0.00 0.00 0.00
20211203054137 58 198 10.0 6.0 0.00 0.00 0.00
20211203053845 58 198 10.0 6.0 0.00 0.00 0.00
20211203053658 58 242 11.0 8.0 0.00 0.00 0.00
20211203053347 58 242 11.0 8.0 0.00 0.00 0.00
20211203052340 58 183 11.0 8.0 0.00 0.00 0.00
20211203051659 58 207 5.0 9.0 0.00 0.00 0.00
20211203051334 58 207 5.0 9.0 0.00 0.00 0.00
20211203051126 58 219 7.0 4.0 0.00 0.00 0.00
20211203050833 58 219 7.0 4.0 0.00 0.00 0.00
20211203050731 57 217 7.0 5.0 0.00 0.00 0.00
20211203050613 57 217 7.0 5.0 0.00 0.00 0.00
20211203050333 57 217 7.0 5.0 0.00 0.00 0.00
20211203050124 57 207 4.0 3.0 0.00 0.00 0.00
20211203045825 57 207 4.0 3.0 0.00 0.00 0.00
20211203045630 58 210 6.0 4.0 0.00 0.00 0.00
20211203045326 58 210 6.0 4.0 0.00 0.00 0.00
20211203044824 58 212 5.0 6.0 0.00 0.00 0.00
20211203044608 58 205 7.0 3.0 0.00 0.00 0.00
20211203044536 58 205 7.0 3.0 0.00 0.00 0.00
20211203044316 58 205 7.0 3.0 0.00 0.00 0.00
20211203044102 58 191 5.0 6.0 0.00 0.00 0.00
20211203043817 58 191 5.0 6.0 0.00 0.00 0.00
20211203043622 58 255 7.0 8.0 0.00 0.00 0.00
20211203043316 58 255 7.0 8.0 0.00 0.00 0.00
20211203042808 58 183 7.0 4.0 0.00 0.00 0.00
20211203042234 58 193 3.0 6.0 0.00 0.00 0.00
20211203041806 58 193 3.0 6.0 0.00 0.00 0.00
20211203041302 58 242 5.0 3.0 0.00 0.00 0.00
20211203041101 58 179 10.0 2.0 0.00 0.00 0.00
20211203040802 58 179 10.0 2.0 0.00 0.00 0.00
20211203040300 59 239 7.0 3.0 0.00 0.00 0.00
20211203040049 59 210 6.0 14.0 0.00 0.00 0.00
20211203035751 59 210 6.0 14.0 0.00 0.00 0.00
20211203035139 60 198 8.0 3.0 0.00 0.00 0.00
20211203034744 60 198 8.0 3.0 0.00 0.00 0.00
20211203033551 60 212 6.0 6.0 0.00 0.00 0.00
20211203033229 60 212 6.0 6.0 0.00 0.00 0.00
20211203032937 60 245 6.0 5.0 0.00 0.00 0.00
20211203032725 60 245 6.0 5.0 0.00 0.00 0.00
20211203032531 61 240 11.0 7.0 0.00 0.00 0.00
20211203032225 61 240 11.0 7.0 0.00 0.00 0.00
20211203032051 60 246 7.0 10.0 0.00 0.00 0.00
20211203031724 60 246 7.0 10.0 0.00 0.00 0.00
20211203031548 61 248 6.0 5.0 0.00 0.00 0.00
20211203031219 61 248 6.0 5.0 0.00 0.00 0.00
20211203031024 61 195 8.0 5.0 0.00 0.00 0.00
20211203030719 61 195 8.0 5.0 0.00 0.00 0.00
20211203030553 61 218 5.0 2.0 0.00 0.00 0.00
20211203030215 61 218 5.0 2.0 0.00 0.00 0.00
20211203030003 61 203 5.0 4.0 0.00 0.00 0.00
20211203025711 61 203 5.0 4.0 0.00 0.00 0.00
20211203025457 62 207 12.0 14.0 0.00 0.00 0.00
20211203025212 62 207 12.0 14.0 0.00 0.00 0.00
20211203024949 62 253 5.0 8.0 0.00 0.00 0.00
20211203024713 62 253 5.0 8.0 0.00 0.00 0.00
20211203024620 62 233 6.0 12.0 0.00 0.00 0.00
20211203024207 62 233 6.0 12.0 0.00 0.00 0.00
20211203024032 62 253 10.0 7.0 0.00 0.00 0.00
20211203023707 62 253 10.0 7.0 0.00 0.00 0.00
20211203023207 62 236 6.0 6.0 0.00 0.00 0.00
20211203023012 63 228 7.0 8.0 0.00 0.00 0.00
20211203022656 63 228 7.0 8.0 0.00 0.00 0.00
20211203022157 63 167 8.0 2.0 0.00 0.00 0.00
20211203021653 64 243 8.0 5.0 0.00 0.00 0.00
20211203021147 64 174 0.0 0.0 0.00 0.00 0.00
20211203020647 64 245 2.0 4.0 0.00 0.00 0.00
20211203015043 65 210 4.0 4.0 0.00 0.00 0.00
20211203014641 65 210 4.0 4.0 0.00 0.00 0.00
20211203014137 65 207 5.0 1.0 0.00 0.00 0.00
20211203013941 65 210 5.0 5.0 0.00 0.00 0.00
20211203013637 65 210 5.0 5.0 0.00 0.00 0.00
20211203013136 65 200 4.0 8.0 0.00 0.00 0.00
20211203012955 65 173 4.0 3.0 0.00 0.00 0.00
20211203012633 65 173 4.0 3.0 0.00 0.00 0.00
20211203012456 66 256 5.0 5.0 0.00 0.00 0.00
20211203012131 66 256 5.0 5.0 0.00 0.00 0.00
20211203011630 66 210 6.0 8.0 0.00 0.00 0.00
20211203011128 65 170 3.0 3.0 0.00 0.00 0.00
20211203010856 65 198 3.0 4.0 0.00 0.00 0.00
20211203010625 65 198 3.0 4.0 0.00 0.00 0.00
20211203010431 65 150 3.0 3.0 0.00 0.00 0.00
20211203010123 65 150 3.0 3.0 0.00 0.00 0.00
20211203005923 65 198 5.0 4.0 0.00 0.00 0.00
20211203005611 65 198 5.0 4.0 0.00 0.00 0.00
20211203005108 65 162 3.0 4.0 0.00 0.00 0.00
20211203004941 65 197 3.0 4.0 0.00 0.00 0.00
20211203004609 65 197 3.0 4.0 0.00 0.00 0.00
20211203004448 66 181 6.0 5.0 0.00 0.00 0.00
20211203004103 66 181 6.0 5.0 0.00 0.00 0.00
20211203003846 66 239 5.0 3.0 0.00 0.00 0.00
20211203003604 66 239 5.0 3.0 0.00 0.00 0.00
20211203003402 66 190 3.0 1.0 0.00 0.00 0.00
20211203003104 66 190 3.0 1.0 0.00 0.00 0.00
20211203002602 66 204 3.0 6.0 0.00 0.00 0.00
20211203002430 66 271 3.0 3.0 0.00 0.00 0.00
20211203002103 66 271 3.0 3.0 0.00 0.00 0.00
20211203001603 66 225 5.0 6.0 0.00 0.00 0.00
20211203001414 66 198 6.0 6.0 0.00 0.00 0.00
20211203001059 66 198 6.0 6.0 0.00 0.00 0.00
20211203000841 66 210 4.0 5.0 0.00 0.00 0.00
20211203000600 66 210 4.0 5.0 0.00 0.00 0.00
20211203000317 66 212 11.0 5.0 0.00 0.00 0.00
20211203000100 66 212 11.0 5.0 0.00 0.00 0.00
20211202235924 66 163 3.0 4.0 0.00 0.00 0.00
20211202235558 66 163 3.0 4.0 0.00 0.00 0.00
20211202235058 66 212 5.0 5.0 0.00 0.00 0.00
20211202234808 66 198 3.0 2.0 0.00 0.00 0.00
20211202234552 66 198 3.0 2.0 0.00 0.00 0.00
20211202234327 66 210 3.0 3.0 0.00 0.00 0.00
20211202234049 66 210 3.0 3.0 0.00 0.00 0.00
20211202233800 66 177 5.0 5.0 0.00 0.00 0.00
20211202233547 66 177 5.0 5.0 0.00 0.00 0.00
20211202233047 64 255 3.0 18.0 0.00 0.00 0.00
20211202232840 63 131 2.0 0.0 0.00 0.00 0.00
20211202232543 63 131 2.0 0.0 0.00 0.00 0.00
20211202232039 62 195 3.0 6.0 0.00 0.00 0.00
20211202231539 62 217 0.0 0.0 0.00 0.00 0.00
20211202231259 61 217 2.0 0.0 0.00 0.00 0.00
20211202231027 61 217 2.0 0.0 0.00 0.00 0.00
20211202230528 60 100 0.0 0.0 0.00 0.00 0.00
20211202230025 61 100 0.0 0.0 0.00 0.00 0.00
20211202225522 60 100 0.0 0.0 0.00 0.00 0.00
20211202225400 61 100 0.0 0.0 0.00 0.00 0.00
20211202225023 61 100 0.0 0.0 0.00 0.00 0.00
20211202224759 60 100 0.0 0.0 0.00 0.00 0.00
20211202224523 60 100 0.0 0.0 0.00 0.00 0.00
20211202224315 61 100 0.0 0.0 0.00 0.00 0.00
20211202224016 61 100 0.0 0.0 0.00 0.00 0.00